sensor_id;sensor_type;location;lat;lon;timestamp;temperature;humidity
12720;DHT22;6424;48.520;11.228;2023-05-07T00:01:56;11.50;99.90
12720;DHT22;6424;48.520;11.228;2023-05-07T00:04:22;11.50;99.90
12720;DHT22;6424;48.520;11.228;2023-05-07T00:07:03;11.50;99.90
12720;DHT22;6424;48.520;11.228;2023-05-07T00:09:44;11.50;99.90
12720;DHT22;6424;48.520;11.228;2023-05-07T00:12:25;11.50;99.90
12720;DHT22;6424;48.520;11.228;2023-05-07T00:15:06;11.50;99.90
12720;DHT22;6424;48.520;11.228;2023-05-07T00:17:47;11.50;99.90
12720;DHT22;6424;48.520;11.228;2023-05-07T00:20:28;11.50;99.90
12720;DHT22;6424;48.520;11.228;2023-05-07T00:22:53;11.50;99.90
12720;DHT22;6424;48.520;11.228;2023-05-07T00:25:34;11.50;99.90
12720;DHT22;6424;48.520;11.228;2023-05-07T00:28:00;11.40;99.90
12720;DHT22;6424;48.520;11.228;2023-05-07T00:30:44;11.40;99.90
12720;DHT22;6424;48.520;11.228;2023-05-07T00:33:24;11.40;99.90
12720;DHT22;6424;48.520;11.228;2023-05-07T00:36:07;11.40;99.90
12720;DHT22;6424;48.520;11.228;2023-05-07T00:38:48;11.40;99.90
12720;DHT22;6424;48.520;11.228;2023-05-07T00:41:29;11.50;99.90
12720;DHT22;6424;48.520;11.228;2023-05-07T00:44:11;11.50;99.90
12720;DHT22;6424;48.520;11.228;2023-05-07T00:46:52;11.50;99.90
12720;DHT22;6424;48.520;11.228;2023-05-07T00:49:42;11.50;99.90
12720;DHT22;6424;48.520;11.228;2023-05-07T00:52:25;11.50;99.90
12720;DHT22;6424;48.520;11.228;2023-05-07T00:55:06;11.50;99.90
12720;DHT22;6424;48.520;11.228;2023-05-07T00:57:47;11.50;99.90
12720;DHT22;6424;48.520;11.228;2023-05-07T01:00:14;11.50;99.90
12720;DHT22;6424;48.520;11.228;2023-05-07T01:02:40;11.50;99.90
12720;DHT22;6424;48.520;11.228;2023-05-07T01:05:23;11.50;99.90
12720;DHT22;6424;48.520;11.228;2023-05-07T01:07:50;11.50;99.90
12720;DHT22;6424;48.520;11.228;2023-05-07T01:10:17;11.50;99.90
12720;DHT22;6424;48.520;11.228;2023-05-07T01:12:58;11.50;99.90
12720;DHT22;6424;48.520;11.228;2023-05-07T01:15:40;11.50;99.90
12720;DHT22;6424;48.520;11.228;2023-05-07T01:18:07;11.50;99.90
12720;DHT22;6424;48.520;11.228;2023-05-07T01:20:47;11.50;99.90
12720;DHT22;6424;48.520;11.228;2023-05-07T01:23:29;11.50;99.90
12720;DHT22;6424;48.520;11.228;2023-05-07T01:26:11;11.50;99.90
12720;DHT22;6424;48.520;11.228;2023-05-07T01:28:51;11.50;99.90
12720;DHT22;6424;48.520;11.228;2023-05-07T01:31:34;11.50;99.90
12720;DHT22;6424;48.520;11.228;2023-05-07T01:34:17;11.50;99.90
12720;DHT22;6424;48.520;11.228;2023-05-07T01:37:00;11.40;99.90
12720;DHT22;6424;48.520;11.228;2023-05-07T01:39:42;11.30;99.90
12720;DHT22;6424;48.520;11.228;2023-05-07T01:42:23;11.30;99.90
12720;DHT22;6424;48.520;11.228;2023-05-07T01:45:05;11.30;99.90
12720;DHT22;6424;48.520;11.228;2023-05-07T01:47:31;11.20;99.90
12720;DHT22;6424;48.520;11.228;2023-05-07T01:50:13;11.20;99.90
12720;DHT22;6424;48.520;11.228;2023-05-07T01:52:56;11.20;99.90
12720;DHT22;6424;48.520;11.228;2023-05-07T01:55:37;11.20;99.90
12720;DHT22;6424;48.520;11.228;2023-05-07T01:58:17;11.20;99.90
12720;DHT22;6424;48.520;11.228;2023-05-07T02:00:58;11.10;99.90
12720;DHT22;6424;48.520;11.228;2023-05-07T02:03:39;11.10;99.90
12720;DHT22;6424;48.520;11.228;2023-05-07T02:06:05;11.10;99.90
12720;DHT22;6424;48.520;11.228;2023-05-07T02:08:47;11.10;99.90
12720;DHT22;6424;48.520;11.228;2023-05-07T02:11:27;11.00;99.90
12720;DHT22;6424;48.520;11.228;2023-05-07T02:14:08;11.00;99.90
12720;DHT22;6424;48.520;11.228;2023-05-07T02:16:49;10.90;99.90
12720;DHT22;6424;48.520;11.228;2023-05-07T02:19:30;10.90;99.90
12720;DHT22;6424;48.520;11.228;2023-05-07T02:22:11;10.80;99.90
12720;DHT22;6424;48.520;11.228;2023-05-07T02:24:36;10.70;99.90
12720;DHT22;6424;48.520;11.228;2023-05-07T02:27:17;10.70;99.90
12720;DHT22;6424;48.520;11.228;2023-05-07T02:29:43;10.70;99.90
12720;DHT22;6424;48.520;11.228;2023-05-07T02:32:23;10.70;99.90
12720;DHT22;6424;48.520;11.228;2023-05-07T02:34:50;10.70;99.90
12720;DHT22;6424;48.520;11.228;2023-05-07T02:37:32;10.60;99.90
12720;DHT22;6424;48.520;11.228;2023-05-07T02:40:13;10.60;99.90
12720;DHT22;6424;48.520;11.228;2023-05-07T02:42:55;10.60;99.90
12720;DHT22;6424;48.520;11.228;2023-05-07T02:45:35;10.60;99.90
12720;DHT22;6424;48.520;11.228;2023-05-07T02:48:19;10.60;99.90
12720;DHT22;6424;48.520;11.228;2023-05-07T02:51:00;10.60;99.90
12720;DHT22;6424;48.520;11.228;2023-05-07T02:53:41;10.50;99.90
12720;DHT22;6424;48.520;11.228;2023-05-07T02:56:22;10.50;99.90
12720;DHT22;6424;48.520;11.228;2023-05-07T02:59:03;10.50;99.90
12720;DHT22;6424;48.520;11.228;2023-05-07T03:01:43;10.50;99.90
12720;DHT22;6424;48.520;11.228;2023-05-07T03:04:25;10.40;99.90
12720;DHT22;6424;48.520;11.228;2023-05-07T03:07:06;10.30;99.90
12720;DHT22;6424;48.520;11.228;2023-05-07T03:09:47;10.30;99.90
12720;DHT22;6424;48.520;11.228;2023-05-07T03:12:27;10.30;99.90
12720;DHT22;6424;48.520;11.228;2023-05-07T03:15:09;10.20;99.90
12720;DHT22;6424;48.520;11.228;2023-05-07T03:17:50;10.20;99.90
12720;DHT22;6424;48.520;11.228;2023-05-07T03:20:31;10.20;99.90
12720;DHT22;6424;48.520;11.228;2023-05-07T03:23:12;10.20;99.90
12720;DHT22;6424;48.520;11.228;2023-05-07T03:25:53;10.20;99.90
12720;DHT22;6424;48.520;11.228;2023-05-07T03:28:33;10.20;99.90
12720;DHT22;6424;48.520;11.228;2023-05-07T03:31:14;10.20;99.90
12720;DHT22;6424;48.520;11.228;2023-05-07T03:33:57;10.20;99.90
12720;DHT22;6424;48.520;11.228;2023-05-07T03:36:37;10.20;99.90
12720;DHT22;6424;48.520;11.228;2023-05-07T03:39:18;10.10;99.90
12720;DHT22;6424;48.520;11.228;2023-05-07T03:41:59;10.10;99.90
12720;DHT22;6424;48.520;11.228;2023-05-07T03:44:40;10.10;99.90
12720;DHT22;6424;48.520;11.228;2023-05-07T03:47:20;10.20;99.90
12720;DHT22;6424;48.520;11.228;2023-05-07T03:50:01;10.10;99.90
12720;DHT22;6424;48.520;11.228;2023-05-07T03:52:42;10.10;99.90
12720;DHT22;6424;48.520;11.228;2023-05-07T03:55:23;10.10;99.90
12720;DHT22;6424;48.520;11.228;2023-05-07T03:58:04;10.10;99.90
12720;DHT22;6424;48.520;11.228;2023-05-07T04:00:30;10.10;99.90
12720;DHT22;6424;48.520;11.228;2023-05-07T04:02:59;10.10;99.90
12720;DHT22;6424;48.520;11.228;2023-05-07T04:05:39;10.10;99.90
12720;DHT22;6424;48.520;11.228;2023-05-07T04:08:05;10.10;99.90
12720;DHT22;6424;48.520;11.228;2023-05-07T04:10:46;10.10;99.90
12720;DHT22;6424;48.520;11.228;2023-05-07T04:13:27;10.10;99.90
12720;DHT22;6424;48.520;11.228;2023-05-07T04:16:08;10.10;99.90
12720;DHT22;6424;48.520;11.228;2023-05-07T04:18:48;10.20;99.90
12720;DHT22;6424;48.520;11.228;2023-05-07T04:21:29;10.30;99.90
12720;DHT22;6424;48.520;11.228;2023-05-07T04:24:10;10.50;99.90
12720;DHT22;6424;48.520;11.228;2023-05-07T04:26:51;10.80;99.90
12720;DHT22;6424;48.520;11.228;2023-05-07T04:29:33;11.20;99.90
12720;DHT22;6424;48.520;11.228;2023-05-07T04:32:13;11.90;99.90
12720;DHT22;6424;48.520;11.228;2023-05-07T04:34:55;12.80;99.90
12720;DHT22;6424;48.520;11.228;2023-05-07T04:37:36;14.00;99.90
12720;DHT22;6424;48.520;11.228;2023-05-07T04:40:17;15.00;99.90
12720;DHT22;6424;48.520;11.228;2023-05-07T04:42:57;16.00;99.90
12720;DHT22;6424;48.520;11.228;2023-05-07T04:45:38;17.00;99.90
12720;DHT22;6424;48.520;11.228;2023-05-07T04:48:21;17.50;99.90
12720;DHT22;6424;48.520;11.228;2023-05-07T04:51:02;17.50;99.90
12720;DHT22;6424;48.520;11.228;2023-05-07T04:53:43;17.90;99.90
12720;DHT22;6424;48.520;11.228;2023-05-07T04:56:24;18.00;99.90
12720;DHT22;6424;48.520;11.228;2023-05-07T04:59:07;17.60;99.90
12720;DHT22;6424;48.520;11.228;2023-05-07T05:01:48;17.70;99.90
12720;DHT22;6424;48.520;11.228;2023-05-07T05:04:29;18.30;99.90
12720;DHT22;6424;48.520;11.228;2023-05-07T05:07:10;19.10;99.90
12720;DHT22;6424;48.520;11.228;2023-05-07T05:09:50;19.70;99.90
12720;DHT22;6424;48.520;11.228;2023-05-07T05:12:31;19.80;99.90
12720;DHT22;6424;48.520;11.228;2023-05-07T05:15:12;19.40;99.90
12720;DHT22;6424;48.520;11.228;2023-05-07T05:17:53;19.50;99.90
12720;DHT22;6424;48.520;11.228;2023-05-07T05:20:19;20.10;99.90
12720;DHT22;6424;48.520;11.228;2023-05-07T05:22:59;20.70;99.90
12720;DHT22;6424;48.520;11.228;2023-05-07T05:25:40;21.40;99.90
12720;DHT22;6424;48.520;11.228;2023-05-07T05:28:21;21.80;99.90
12720;DHT22;6424;48.520;11.228;2023-05-07T05:31:02;21.90;99.90
12720;DHT22;6424;48.520;11.228;2023-05-07T05:33:43;22.10;99.90
12720;DHT22;6424;48.520;11.228;2023-05-07T05:36:23;22.40;99.90
12720;DHT22;6424;48.520;11.228;2023-05-07T05:39:04;22.60;99.90
12720;DHT22;6424;48.520;11.228;2023-05-07T05:41:45;22.70;98.20
12720;DHT22;6424;48.520;11.228;2023-05-07T05:44:25;22.10;98.00
12720;DHT22;6424;48.520;11.228;2023-05-07T05:47:06;21.20;99.90
12720;DHT22;6424;48.520;11.228;2023-05-07T05:49:47;21.10;99.90
12720;DHT22;6424;48.520;11.228;2023-05-07T05:52:28;21.30;99.90
12720;DHT22;6424;48.520;11.228;2023-05-07T05:55:09;21.40;99.90
12720;DHT22;6424;48.520;11.228;2023-05-07T05:57:35;21.60;99.90
12720;DHT22;6424;48.520;11.228;2023-05-07T06:00:16;21.60;99.90
12720;DHT22;6424;48.520;11.228;2023-05-07T06:02:42;21.30;99.90
12720;DHT22;6424;48.520;11.228;2023-05-07T06:05:23;21.00;99.90
12720;DHT22;6424;48.520;11.228;2023-05-07T06:08:04;20.60;99.90
12720;DHT22;6424;48.520;11.228;2023-05-07T06:10:45;20.30;99.90
12720;DHT22;6424;48.520;11.228;2023-05-07T06:13:25;20.00;99.90
12720;DHT22;6424;48.520;11.228;2023-05-07T06:16:06;19.80;99.90
12720;DHT22;6424;48.520;11.228;2023-05-07T06:18:47;19.40;99.90
12720;DHT22;6424;48.520;11.228;2023-05-07T06:21:13;18.80;99.90
12720;DHT22;6424;48.520;11.228;2023-05-07T06:23:55;18.30;99.90
12720;DHT22;6424;48.520;11.228;2023-05-07T06:26:36;18.20;99.90
12720;DHT22;6424;48.520;11.228;2023-05-07T06:29:17;18.30;99.90
12720;DHT22;6424;48.520;11.228;2023-05-07T06:32:09;18.40;99.90
12720;DHT22;6424;48.520;11.228;2023-05-07T06:34:50;18.50;99.90
12720;DHT22;6424;48.520;11.228;2023-05-07T06:37:16;18.70;99.90
12720;DHT22;6424;48.520;11.228;2023-05-07T06:39:56;18.90;99.90
12720;DHT22;6424;48.520;11.228;2023-05-07T06:42:37;18.90;99.90
12720;DHT22;6424;48.520;11.228;2023-05-07T06:45:19;18.90;99.90
12720;DHT22;6424;48.520;11.228;2023-05-07T06:48:00;18.90;99.90
12720;DHT22;6424;48.520;11.228;2023-05-07T06:50:42;18.80;99.90
12720;DHT22;6424;48.520;11.228;2023-05-07T06:53:23;18.30;99.90
12720;DHT22;6424;48.520;11.228;2023-05-07T06:56:04;18.20;99.90
12720;DHT22;6424;48.520;11.228;2023-05-07T06:58:45;18.30;99.90
12720;DHT22;6424;48.520;11.228;2023-05-07T07:01:26;18.30;99.90
12720;DHT22;6424;48.520;11.228;2023-05-07T07:04:07;18.40;99.90
12720;DHT22;6424;48.520;11.228;2023-05-07T07:06:47;18.70;99.90
12720;DHT22;6424;48.520;11.228;2023-05-07T07:09:28;18.70;99.90
12720;DHT22;6424;48.520;11.228;2023-05-07T07:12:09;18.60;99.90
12720;DHT22;6424;48.520;11.228;2023-05-07T07:14:35;18.40;99.90
12720;DHT22;6424;48.520;11.228;2023-05-07T07:17:15;18.60;99.90
12720;DHT22;6424;48.520;11.228;2023-05-07T07:19:56;18.50;99.90
12720;DHT22;6424;48.520;11.228;2023-05-07T07:22:37;18.80;99.90
12720;DHT22;6424;48.520;11.228;2023-05-07T07:25:18;19.00;99.90
12720;DHT22;6424;48.520;11.228;2023-05-07T07:27:58;19.10;99.90
12720;DHT22;6424;48.520;11.228;2023-05-07T07:30:39;19.10;99.90
12720;DHT22;6424;48.520;11.228;2023-05-07T07:33:20;19.30;99.90
12720;DHT22;6424;48.520;11.228;2023-05-07T07:35:46;19.50;99.90
12720;DHT22;6424;48.520;11.228;2023-05-07T07:38:26;19.80;99.90
12720;DHT22;6424;48.520;11.228;2023-05-07T07:41:10;19.90;99.90
12720;DHT22;6424;48.520;11.228;2023-05-07T07:43:36;20.10;99.90
12720;DHT22;6424;48.520;11.228;2023-05-07T07:46:17;20.30;99.90
12720;DHT22;6424;48.520;11.228;2023-05-07T07:48:57;20.40;99.90
12720;DHT22;6424;48.520;11.228;2023-05-07T07:51:40;20.60;99.90
12720;DHT22;6424;48.520;11.228;2023-05-07T07:54:21;20.50;99.90
12720;DHT22;6424;48.520;11.228;2023-05-07T07:57:01;20.50;99.90
12720;DHT22;6424;48.520;11.228;2023-05-07T07:59:42;20.60;99.90
12720;DHT22;6424;48.520;11.228;2023-05-07T08:02:23;20.70;99.90
12720;DHT22;6424;48.520;11.228;2023-05-07T08:05:05;20.70;99.90
12720;DHT22;6424;48.520;11.228;2023-05-07T08:07:46;20.90;99.90
12720;DHT22;6424;48.520;11.228;2023-05-07T08:10:32;21.10;99.90
12720;DHT22;6424;48.520;11.228;2023-05-07T08:13:15;21.10;99.90
12720;DHT22;6424;48.520;11.228;2023-05-07T08:15:55;21.30;99.90
12720;DHT22;6424;48.520;11.228;2023-05-07T08:18:36;21.50;99.90
12720;DHT22;6424;48.520;11.228;2023-05-07T08:21:02;21.70;99.90
12720;DHT22;6424;48.520;11.228;2023-05-07T08:23:43;21.60;99.90
12720;DHT22;6424;48.520;11.228;2023-05-07T08:26:24;21.30;99.90
12720;DHT22;6424;48.520;11.228;2023-05-07T08:29:04;21.30;99.90
12720;DHT22;6424;48.520;11.228;2023-05-07T08:31:45;21.10;99.90
12720;DHT22;6424;48.520;11.228;2023-05-07T08:34:26;21.30;99.90
12720;DHT22;6424;48.520;11.228;2023-05-07T08:37:07;21.50;99.90
12720;DHT22;6424;48.520;11.228;2023-05-07T08:39:47;21.60;99.90
12720;DHT22;6424;48.520;11.228;2023-05-07T08:42:29;21.70;99.90
12720;DHT22;6424;48.520;11.228;2023-05-07T08:45:12;21.90;99.90
12720;DHT22;6424;48.520;11.228;2023-05-07T08:47:58;21.60;99.90
12720;DHT22;6424;48.520;11.228;2023-05-07T08:50:40;21.50;99.90
12720;DHT22;6424;48.520;11.228;2023-05-07T08:53:21;21.70;99.90
12720;DHT22;6424;48.520;11.228;2023-05-07T08:56:02;21.60;99.90
12720;DHT22;6424;48.520;11.228;2023-05-07T08:58:29;21.30;99.90
12720;DHT22;6424;48.520;11.228;2023-05-07T09:01:13;21.40;99.90
12720;DHT22;6424;48.520;11.228;2023-05-07T09:03:55;21.30;99.90
12720;DHT22;6424;48.520;11.228;2023-05-07T09:06:35;21.30;99.90
12720;DHT22;6424;48.520;11.228;2023-05-07T09:09:18;21.20;99.90
12720;DHT22;6424;48.520;11.228;2023-05-07T09:11:59;21.30;99.90
12720;DHT22;6424;48.520;11.228;2023-05-07T09:14:40;21.50;99.90
12720;DHT22;6424;48.520;11.228;2023-05-07T09:17:21;21.50;99.90
12720;DHT22;6424;48.520;11.228;2023-05-07T09:19:47;21.50;99.90
12720;DHT22;6424;48.520;11.228;2023-05-07T09:22:28;21.80;99.90
12720;DHT22;6424;48.520;11.228;2023-05-07T09:25:08;22.00;99.90
12720;DHT22;6424;48.520;11.228;2023-05-07T09:27:50;21.90;99.90
12720;DHT22;6424;48.520;11.228;2023-05-07T09:30:33;21.80;99.90
12720;DHT22;6424;48.520;11.228;2023-05-07T09:33:14;21.80;99.90
12720;DHT22;6424;48.520;11.228;2023-05-07T09:35:55;21.70;99.90
12720;DHT22;6424;48.520;11.228;2023-05-07T09:38:37;22.10;99.90
12720;DHT22;6424;48.520;11.228;2023-05-07T09:41:10;22.40;99.90
12720;DHT22;6424;48.520;11.228;2023-05-07T09:43:55;22.60;99.90
12720;DHT22;6424;48.520;11.228;2023-05-07T09:46:37;22.80;92.30
12720;DHT22;6424;48.520;11.228;2023-05-07T09:49:22;22.60;93.80
12720;DHT22;6424;48.520;11.228;2023-05-07T09:52:05;22.50;92.30
12720;DHT22;6424;48.520;11.228;2023-05-07T09:54:51;22.60;92.20
12720;DHT22;6424;48.520;11.228;2023-05-07T09:57:34;22.70;92.50
12720;DHT22;6424;48.520;11.228;2023-05-07T10:00:19;22.70;91.60
12720;DHT22;6424;48.520;11.228;2023-05-07T10:03:01;22.60;92.20
12720;DHT22;6424;48.520;11.228;2023-05-07T10:05:44;22.50;93.30
12720;DHT22;6424;48.520;11.228;2023-05-07T10:08:25;22.70;92.60
12720;DHT22;6424;48.520;11.228;2023-05-07T10:11:06;22.70;91.90
12720;DHT22;6424;48.520;11.228;2023-05-07T10:13:48;22.90;91.60
12720;DHT22;6424;48.520;11.228;2023-05-07T10:16:33;23.00;90.80
12720;DHT22;6424;48.520;11.228;2023-05-07T10:19:17;23.00;82.40
12720;DHT22;6424;48.520;11.228;2023-05-07T10:22:04;23.10;85.50
12720;DHT22;6424;48.520;11.228;2023-05-07T10:24:48;23.00;84.20
12720;DHT22;6424;48.520;11.228;2023-05-07T10:27:30;22.90;86.90
12720;DHT22;6424;48.520;11.228;2023-05-07T10:30:21;23.00;87.90
12720;DHT22;6424;48.520;11.228;2023-05-07T10:33:09;23.10;87.00
12720;DHT22;6424;48.520;11.228;2023-05-07T10:35:51;23.20;85.80
12720;DHT22;6424;48.520;11.228;2023-05-07T10:38:32;23.20;84.10
12720;DHT22;6424;48.520;11.228;2023-05-07T10:41:12;23.20;86.90
12720;DHT22;6424;48.520;11.228;2023-05-07T10:43:53;23.10;86.10
12720;DHT22;6424;48.520;11.228;2023-05-07T10:46:34;23.20;85.00
12720;DHT22;6424;48.520;11.228;2023-05-07T10:49:15;23.30;83.60
12720;DHT22;6424;48.520;11.228;2023-05-07T10:52:16;23.20;82.90
12720;DHT22;6424;48.520;11.228;2023-05-07T10:58:27;22.60;83.70
12720;DHT22;6424;48.520;11.228;2023-05-07T11:01:08;22.30;86.20
12720;DHT22;6424;48.520;11.228;2023-05-07T11:04:14;22.20;86.00
12720;DHT22;6424;48.520;11.228;2023-05-07T11:09:58;22.20;87.50
12720;DHT22;6424;48.520;11.228;2023-05-07T11:15:37;22.50;85.70
12720;DHT22;6424;48.520;11.228;2023-05-07T11:18:03;22.70;86.10
12720;DHT22;6424;48.520;11.228;2023-05-07T11:20:52;22.70;83.50
12720;DHT22;6424;48.520;11.228;2023-05-07T11:26:04;22.60;82.20
12720;DHT22;6424;48.520;11.228;2023-05-07T11:28:46;22.60;83.10
12720;DHT22;6424;48.520;11.228;2023-05-07T11:31:27;22.60;82.70
12720;DHT22;6424;48.520;11.228;2023-05-07T11:34:11;22.60;84.70
12720;DHT22;6424;48.520;11.228;2023-05-07T11:36:52;22.60;85.90
12720;DHT22;6424;48.520;11.228;2023-05-07T11:39:33;22.70;83.10
12720;DHT22;6424;48.520;11.228;2023-05-07T11:42:36;22.80;83.50
12720;DHT22;6424;48.520;11.228;2023-05-07T11:45:03;23.00;83.20
12720;DHT22;6424;48.520;11.228;2023-05-07T11:47:44;23.00;80.90
12720;DHT22;6424;48.520;11.228;2023-05-07T11:50:25;23.10;80.70
12720;DHT22;6424;48.520;11.228;2023-05-07T11:53:09;23.20;83.20
12720;DHT22;6424;48.520;11.228;2023-05-07T11:55:55;23.20;80.80
12720;DHT22;6424;48.520;11.228;2023-05-07T11:58:36;23.00;80.40
12720;DHT22;6424;48.520;11.228;2023-05-07T12:01:17;22.90;80.30
12720;DHT22;6424;48.520;11.228;2023-05-07T12:04:02;22.90;81.10
12720;DHT22;6424;48.520;11.228;2023-05-07T12:06:43;22.90;79.10
12720;DHT22;6424;48.520;11.228;2023-05-07T12:09:24;22.90;80.20
12720;DHT22;6424;48.520;11.228;2023-05-07T12:12:06;23.10;81.40
12720;DHT22;6424;48.520;11.228;2023-05-07T12:14:47;23.40;78.00
12720;DHT22;6424;48.520;11.228;2023-05-07T12:17:28;23.40;77.50
12720;DHT22;6424;48.520;11.228;2023-05-07T12:19:54;23.60;76.80
12720;DHT22;6424;48.520;11.228;2023-05-07T12:22:36;23.60;76.80
12720;DHT22;6424;48.520;11.228;2023-05-07T12:25:19;23.60;77.20
12720;DHT22;6424;48.520;11.228;2023-05-07T12:28:04;23.70;77.00
12720;DHT22;6424;48.520;11.228;2023-05-07T12:30:47;23.50;77.00
12720;DHT22;6424;48.520;11.228;2023-05-07T12:33:28;23.40;75.30
12720;DHT22;6424;48.520;11.228;2023-05-07T12:36:13;23.40;77.70
12720;DHT22;6424;48.520;11.228;2023-05-07T12:38:54;23.60;76.60
12720;DHT22;6424;48.520;11.228;2023-05-07T12:41:54;23.70;75.60
12720;DHT22;6424;48.520;11.228;2023-05-07T12:44:24;23.70;82.90
12720;DHT22;6424;48.520;11.228;2023-05-07T12:49:47;23.80;76.60
12720;DHT22;6424;48.520;11.228;2023-05-07T12:52:28;23.80;76.20
12720;DHT22;6424;48.520;11.228;2023-05-07T12:55:09;23.70;75.30
12720;DHT22;6424;48.520;11.228;2023-05-07T12:57:53;23.50;74.10
12720;DHT22;6424;48.520;11.228;2023-05-07T13:00:37;23.40;74.90
12720;DHT22;6424;48.520;11.228;2023-05-07T13:03:28;23.30;74.00
12720;DHT22;6424;48.520;11.228;2023-05-07T13:06:10;23.20;76.00
12720;DHT22;6424;48.520;11.228;2023-05-07T13:08:53;23.20;77.10
12720;DHT22;6424;48.520;11.228;2023-05-07T13:11:33;23.10;76.50
12720;DHT22;6424;48.520;11.228;2023-05-07T13:14:15;23.10;75.00
12720;DHT22;6424;48.520;11.228;2023-05-07T13:16:55;23.10;75.80
12720;DHT22;6424;48.520;11.228;2023-05-07T13:19:36;23.20;76.10
12720;DHT22;6424;48.520;11.228;2023-05-07T13:22:18;23.30;75.70
12720;DHT22;6424;48.520;11.228;2023-05-07T13:24:58;23.50;76.60
12720;DHT22;6424;48.520;11.228;2023-05-07T13:27:39;23.40;74.50
12720;DHT22;6424;48.520;11.228;2023-05-07T13:30:20;23.40;75.40
12720;DHT22;6424;48.520;11.228;2023-05-07T13:33:01;23.30;76.80
12720;DHT22;6424;48.520;11.228;2023-05-07T13:35:42;23.20;76.00
12720;DHT22;6424;48.520;11.228;2023-05-07T13:38:22;23.10;77.10
12720;DHT22;6424;48.520;11.228;2023-05-07T13:41:03;23.00;78.30
12720;DHT22;6424;48.520;11.228;2023-05-07T13:43:29;23.00;77.90
12720;DHT22;6424;48.520;11.228;2023-05-07T13:46:10;22.90;77.40
12720;DHT22;6424;48.520;11.228;2023-05-07T13:48:50;22.80;77.70
12720;DHT22;6424;48.520;11.228;2023-05-07T13:51:31;22.70;79.00
12720;DHT22;6424;48.520;11.228;2023-05-07T13:54:12;22.70;77.50
12720;DHT22;6424;48.520;11.228;2023-05-07T13:56:53;22.60;79.00
12720;DHT22;6424;48.520;11.228;2023-05-07T13:59:34;22.50;78.20
12720;DHT22;6424;48.520;11.228;2023-05-07T14:02:15;22.50;79.60
12720;DHT22;6424;48.520;11.228;2023-05-07T14:04:56;22.60;78.00
12720;DHT22;6424;48.520;11.228;2023-05-07T14:07:38;22.60;78.40
12720;DHT22;6424;48.520;11.228;2023-05-07T14:10:19;22.60;78.00
12720;DHT22;6424;48.520;11.228;2023-05-07T14:13:00;22.60;78.20
12720;DHT22;6424;48.520;11.228;2023-05-07T14:15:40;22.60;78.60
12720;DHT22;6424;48.520;11.228;2023-05-07T14:18:22;22.60;78.60
12720;DHT22;6424;48.520;11.228;2023-05-07T14:21:04;22.60;79.40
12720;DHT22;6424;48.520;11.228;2023-05-07T14:23:46;22.50;78.70
12720;DHT22;6424;48.520;11.228;2023-05-07T14:26:27;22.40;80.70
12720;DHT22;6424;48.520;11.228;2023-05-07T14:29:08;22.40;82.60
12720;DHT22;6424;48.520;11.228;2023-05-07T14:31:34;22.40;82.30
12720;DHT22;6424;48.520;11.228;2023-05-07T14:34:15;22.40;82.20
12720;DHT22;6424;48.520;11.228;2023-05-07T14:36:56;22.30;82.10
12720;DHT22;6424;48.520;11.228;2023-05-07T14:39:37;22.40;82.00
12720;DHT22;6424;48.520;11.228;2023-05-07T14:42:18;22.30;82.30
12720;DHT22;6424;48.520;11.228;2023-05-07T14:44:58;22.40;82.50
12720;DHT22;6424;48.520;11.228;2023-05-07T14:47:39;22.40;82.20
12720;DHT22;6424;48.520;11.228;2023-05-07T14:50:20;22.40;81.20
12720;DHT22;6424;48.520;11.228;2023-05-07T14:53:01;22.40;81.70
12720;DHT22;6424;48.520;11.228;2023-05-07T14:55:41;22.40;81.30
12720;DHT22;6424;48.520;11.228;2023-05-07T14:58:22;22.40;83.20
12720;DHT22;6424;48.520;11.228;2023-05-07T15:01:03;22.40;82.90
12720;DHT22;6424;48.520;11.228;2023-05-07T15:03:44;22.40;84.10
12720;DHT22;6424;48.520;11.228;2023-05-07T15:06:25;22.20;82.00
12720;DHT22;6424;48.520;11.228;2023-05-07T15:09:06;22.10;83.30
12720;DHT22;6424;48.520;11.228;2023-05-07T15:11:33;22.00;84.60
12720;DHT22;6424;48.520;11.228;2023-05-07T15:14:14;22.00;83.70
12720;DHT22;6424;48.520;11.228;2023-05-07T15:16:55;22.00;84.90
12720;DHT22;6424;48.520;11.228;2023-05-07T15:19:36;22.10;84.80
12720;DHT22;6424;48.520;11.228;2023-05-07T15:22:16;22.20;84.40
12720;DHT22;6424;48.520;11.228;2023-05-07T15:24:57;22.20;84.50
12720;DHT22;6424;48.520;11.228;2023-05-07T15:27:39;22.20;84.60
12720;DHT22;6424;48.520;11.228;2023-05-07T15:30:20;22.10;84.80
12720;DHT22;6424;48.520;11.228;2023-05-07T15:33:01;22.00;85.80
12720;DHT22;6424;48.520;11.228;2023-05-07T15:35:43;22.00;86.40
12720;DHT22;6424;48.520;11.228;2023-05-07T15:38:27;21.90;86.80
12720;DHT22;6424;48.520;11.228;2023-05-07T15:41:08;21.80;87.20
12720;DHT22;6424;48.520;11.228;2023-05-07T15:43:51;21.70;87.80
12720;DHT22;6424;48.520;11.228;2023-05-07T15:46:32;21.50;88.10
12720;DHT22;6424;48.520;11.228;2023-05-07T15:49:13;21.50;88.20
12720;DHT22;6424;48.520;11.228;2023-05-07T15:51:54;21.50;88.70
12720;DHT22;6424;48.520;11.228;2023-05-07T15:54:35;21.50;87.70
12720;DHT22;6424;48.520;11.228;2023-05-07T15:57:15;21.40;87.80
12720;DHT22;6424;48.520;11.228;2023-05-07T15:59:56;21.40;88.60
12720;DHT22;6424;48.520;11.228;2023-05-07T16:02:37;21.40;89.10
12720;DHT22;6424;48.520;11.228;2023-05-07T16:05:18;21.40;89.70
12720;DHT22;6424;48.520;11.228;2023-05-07T16:07:59;21.40;90.50
12720;DHT22;6424;48.520;11.228;2023-05-07T16:10:40;21.30;90.40
12720;DHT22;6424;48.520;11.228;2023-05-07T16:13:21;21.30;90.80
12720;DHT22;6424;48.520;11.228;2023-05-07T16:16:04;21.20;90.60
12720;DHT22;6424;48.520;11.228;2023-05-07T16:18:45;21.10;91.10
12720;DHT22;6424;48.520;11.228;2023-05-07T16:21:26;21.00;91.10
12720;DHT22;6424;48.520;11.228;2023-05-07T16:23:52;20.90;91.00
12720;DHT22;6424;48.520;11.228;2023-05-07T16:26:33;20.90;91.30
12720;DHT22;6424;48.520;11.228;2023-05-07T16:29:14;20.80;91.80
12720;DHT22;6424;48.520;11.228;2023-05-07T16:31:56;20.70;92.00
12720;DHT22;6424;48.520;11.228;2023-05-07T16:34:37;20.70;91.90
12720;DHT22;6424;48.520;11.228;2023-05-07T16:37:18;20.70;91.70
12720;DHT22;6424;48.520;11.228;2023-05-07T16:40:02;20.70;92.00
12720;DHT22;6424;48.520;11.228;2023-05-07T16:42:46;20.70;93.10
12720;DHT22;6424;48.520;11.228;2023-05-07T16:45:27;20.60;93.00
12720;DHT22;6424;48.520;11.228;2023-05-07T16:48:08;20.60;93.50
12720;DHT22;6424;48.520;11.228;2023-05-07T16:50:49;20.50;93.90
12720;DHT22;6424;48.520;11.228;2023-05-07T16:53:29;20.50;94.10
12720;DHT22;6424;48.520;11.228;2023-05-07T16:56:10;20.40;94.40
12720;DHT22;6424;48.520;11.228;2023-05-07T16:58:51;20.30;94.40
12720;DHT22;6424;48.520;11.228;2023-05-07T17:01:32;20.30;95.10
12720;DHT22;6424;48.520;11.228;2023-05-07T17:04:12;20.30;95.20
12720;DHT22;6424;48.520;11.228;2023-05-07T17:06:39;20.20;95.50